Terminal Aerodrome Forecast
Issued by NWS

Home | Current Version | Previous Version | Text Only | Print | Product List | Glossary On
Versions: 1 2 3 4 5 6 7 8 9 10 11 12
609
FTUS43 KICT 221135 AAA
TAFCNU
TAF AMD
KCNU 221135Z 2212/2312 15005KT P6SM BKN200
     FM221400 17009KT P6SM SCT035
     FM221800 18010KT P6SM FEW045
     FM230000 17008KT P6SM SCT250
     FM231000 36010KT P6SM BKN025=

USA.gov is the U.S. government's official web portal to all federal, state and local government web resources and services.